sensor_id;sensor_type;location;lat;lon;timestamp;pressure;altitude;pressure_sealevel;temperature;humidity
40838;BME280;29632;49.168;9.848;2023-02-17T00:02:24;97586.78;;;13.82;38.37
40838;BME280;29632;49.168;9.848;2023-02-17T00:04:51;97585.84;;;13.83;38.46
40838;BME280;29632;49.168;9.848;2023-02-17T00:07:17;97574.38;;;13.84;38.64
40838;BME280;29632;49.168;9.848;2023-02-17T00:09:43;97583.59;;;13.88;38.55
40838;BME280;29632;49.168;9.848;2023-02-17T00:12:09;97573.28;;;13.86;38.58
40838;BME280;29632;49.168;9.848;2023-02-17T00:14:35;97572.47;;;13.86;38.40
40838;BME280;29632;49.168;9.848;2023-02-17T00:17:01;97567.91;;;13.88;38.52
40838;BME280;29632;49.168;9.848;2023-02-17T00:19:26;97565.28;;;13.88;38.35
40838;BME280;29632;49.168;9.848;2023-02-17T00:21:54;97563.63;;;13.87;38.24
40838;BME280;29632;49.168;9.848;2023-02-17T00:24:21;97564.28;;;13.89;38.43
40838;BME280;29632;49.168;9.848;2023-02-17T00:26:47;97560.56;;;13.91;38.72
40838;BME280;29632;49.168;9.848;2023-02-17T00:29:13;97564.81;;;13.92;38.67
40838;BME280;29632;49.168;9.848;2023-02-17T00:31:39;97561.38;;;13.92;38.69
40838;BME280;29632;49.168;9.848;2023-02-17T00:34:05;97550.09;;;13.91;38.29
40838;BME280;29632;49.168;9.848;2023-02-17T00:36:30;97562.06;;;13.94;38.30
40838;BME280;29632;49.168;9.848;2023-02-17T00:38:56;97560.13;;;13.96;38.59
40838;BME280;29632;49.168;9.848;2023-02-17T00:41:23;97557.66;;;13.94;38.43
40838;BME280;29632;49.168;9.848;2023-02-17T00:43:49;97563.06;;;13.93;38.37
40838;BME280;29632;49.168;9.848;2023-02-17T00:46:15;97559.91;;;13.89;38.54
40838;BME280;29632;49.168;9.848;2023-02-17T00:48:41;97553.97;;;13.87;38.38
40838;BME280;29632;49.168;9.848;2023-02-17T00:51:07;97555.09;;;13.85;38.38
40838;BME280;29632;49.168;9.848;2023-02-17T00:53:33;97557.03;;;13.83;38.75
40838;BME280;29632;49.168;9.848;2023-02-17T00:55:59;97563.09;;;13.83;38.73
40838;BME280;29632;49.168;9.848;2023-02-17T00:58:25;97559.50;;;13.84;38.60
40838;BME280;29632;49.168;9.848;2023-02-17T01:00:51;97559.50;;;13.84;38.54
40838;BME280;29632;49.168;9.848;2023-02-17T01:03:17;97552.63;;;13.83;38.85
40838;BME280;29632;49.168;9.848;2023-02-17T01:05:46;97555.09;;;13.85;38.85
40838;BME280;29632;49.168;9.848;2023-02-17T01:08:12;97552.34;;;13.86;38.59
40838;BME280;29632;49.168;9.848;2023-02-17T01:10:38;97549.72;;;13.86;38.47
40838;BME280;29632;49.168;9.848;2023-02-17T01:13:05;97552.63;;;13.83;38.76
40838;BME280;29632;49.168;9.848;2023-02-17T01:15:30;97545.75;;;13.82;38.82
40838;BME280;29632;49.168;9.848;2023-02-17T01:17:57;97546.56;;;13.83;38.84
40838;BME280;29632;49.168;9.848;2023-02-17T01:20:23;97538.03;;;13.81;39.08
40838;BME280;29632;49.168;9.848;2023-02-17T01:22:48;97545.19;;;13.78;39.01
40838;BME280;29632;49.168;9.848;2023-02-17T01:25:14;97546.31;;;13.76;38.98
40838;BME280;29632;49.168;9.848;2023-02-17T01:27:40;97550.88;;;13.74;38.76
40838;BME280;29632;49.168;9.848;2023-02-17T01:30:06;97545.78;;;13.72;38.71
40838;BME280;29632;49.168;9.848;2023-02-17T01:32:31;97541.34;;;13.73;38.57
40838;BME280;29632;49.168;9.848;2023-02-17T01:34:57;97549.06;;;13.74;38.94
40838;BME280;29632;49.168;9.848;2023-02-17T01:37:23;97546.59;;;13.73;38.83
40838;BME280;29632;49.168;9.848;2023-02-17T01:39:48;97540.53;;;13.72;38.80
40838;BME280;29632;49.168;9.848;2023-02-17T01:42:18;97541.34;;;13.73;38.88
40838;BME280;29632;49.168;9.848;2023-02-17T01:47:50;97526.63;;;13.72;39.08
40838;BME280;29632;49.168;9.848;2023-02-17T01:50:20;97515.31;;;13.71;38.96
40838;BME280;29632;49.168;9.848;2023-02-17T01:52:46;97513.69;;;13.70;38.65
40838;BME280;29632;49.168;9.848;2023-02-17T01:55:15;97509.28;;;13.71;38.67
40838;BME280;29632;49.168;9.848;2023-02-17T01:57:42;97507.47;;;13.71;38.90
40838;BME280;29632;49.168;9.848;2023-02-17T02:00:09;97510.63;;;13.75;38.68
40838;BME280;29632;49.168;9.848;2023-02-17T02:02:36;97507.34;;;13.73;38.72
40838;BME280;29632;49.168;9.848;2023-02-17T02:05:02;97507.47;;;13.71;39.06
40838;BME280;29632;49.168;9.848;2023-02-17T02:07:33;97508.31;;;13.72;38.85
40838;BME280;29632;49.168;9.848;2023-02-17T02:10:00;97505.56;;;13.73;38.87
40838;BME280;29632;49.168;9.848;2023-02-17T02:12:27;97493.81;;;13.77;38.81
40838;BME280;29632;49.168;9.848;2023-02-17T02:14:54;97493.66;;;13.79;38.94
40838;BME280;29632;49.168;9.848;2023-02-17T02:25:44;97486.53;;;13.71;38.65
40838;BME280;29632;49.168;9.848;2023-02-17T02:28:24;97480.63;;;13.69;38.80
40838;BME280;29632;49.168;9.848;2023-02-17T02:33:42;97479.56;;;13.62;39.25
40838;BME280;29632;49.168;9.848;2023-02-17T02:36:18;97479.03;;;13.58;39.06
40838;BME280;29632;49.168;9.848;2023-02-17T02:39:03;97481.13;;;13.55;38.86
40838;BME280;29632;49.168;9.848;2023-02-17T02:41:37;97471.59;;;13.54;39.04
40838;BME280;29632;49.168;9.848;2023-02-17T02:44:05;97473.41;;;13.53;38.88
40838;BME280;29632;49.168;9.848;2023-02-17T02:46:31;97474.38;;;13.52;38.90
40838;BME280;29632;49.168;9.848;2023-02-17T02:48:57;97468.59;;;13.49;39.36
40838;BME280;29632;49.168;9.848;2023-02-17T02:57:21;97461.75;;;13.48;38.89
40838;BME280;29632;49.168;9.848;2023-02-17T03:06:25;97463.91;;;13.52;38.81
40838;BME280;29632;49.168;9.848;2023-02-17T03:09:05;97463.91;;;13.52;39.14
40838;BME280;29632;49.168;9.848;2023-02-17T03:11:33;97456.03;;;13.52;38.97
40838;BME280;29632;49.168;9.848;2023-02-17T03:14:04;97457.72;;;13.53;38.86
40838;BME280;29632;49.168;9.848;2023-02-17T03:16:30;97451.66;;;13.53;39.23
40838;BME280;29632;49.168;9.848;2023-02-17T03:18:57;97447.25;;;13.53;38.96
40838;BME280;29632;49.168;9.848;2023-02-17T03:21:22;97442.69;;;13.55;39.12
40838;BME280;29632;49.168;9.848;2023-02-17T03:23:50;97438.97;;;13.58;38.96
40838;BME280;29632;49.168;9.848;2023-02-17T03:26:16;97438.13;;;13.57;38.89
40838;BME280;29632;49.168;9.848;2023-02-17T03:28:41;97433.59;;;13.59;39.02
40838;BME280;29632;49.168;9.848;2023-02-17T03:31:07;97438.66;;;13.61;38.70
40838;BME280;29632;49.168;9.848;2023-02-17T03:33:32;97442.91;;;13.62;39.01
40838;BME280;29632;49.168;9.848;2023-02-17T03:35:58;97440.97;;;13.64;39.09
40838;BME280;29632;49.168;9.848;2023-02-17T03:38:24;97440.97;;;13.64;38.77
40838;BME280;29632;49.168;9.848;2023-02-17T03:40:49;97444.25;;;13.66;38.94
40838;BME280;29632;49.168;9.848;2023-02-17T03:43:17;97444.78;;;13.70;38.75
40838;BME280;29632;49.168;9.848;2023-02-17T03:45:43;97443.41;;;13.75;38.92
40838;BME280;29632;49.168;9.848;2023-02-17T03:48:08;97454.25;;;13.81;38.66
40838;BME280;29632;49.168;9.848;2023-02-17T03:50:34;97451.84;;;13.87;38.67
40838;BME280;29632;49.168;9.848;2023-02-17T03:52:59;97452.94;;;13.94;38.85
40838;BME280;29632;49.168;9.848;2023-02-17T03:55:25;97450.13;;;13.96;38.50
40838;BME280;29632;49.168;9.848;2023-02-17T03:57:51;97448.34;;;13.96;38.85
40838;BME280;29632;49.168;9.848;2023-02-17T04:00:16;97446.69;;;13.95;38.59
40838;BME280;29632;49.168;9.848;2023-02-17T04:02:42;97446.84;;;13.94;38.79
40838;BME280;29632;49.168;9.848;2023-02-17T04:05:08;97447.97;;;13.91;39.04
40838;BME280;29632;49.168;9.848;2023-02-17T04:07:33;97443.19;;;13.87;39.08
40838;BME280;29632;49.168;9.848;2023-02-17T04:09:59;97440.56;;;13.87;38.83
40838;BME280;29632;49.168;9.848;2023-02-17T04:12:25;97442.38;;;13.86;39.07
40838;BME280;29632;49.168;9.848;2023-02-17T04:14:50;97443.19;;;13.87;38.77
40838;BME280;29632;49.168;9.848;2023-02-17T04:17:16;97435.31;;;13.87;39.22
40838;BME280;29632;49.168;9.848;2023-02-17T04:19:42;97432.47;;;13.80;38.96
40838;BME280;29632;49.168;9.848;2023-02-17T04:22:07;97440.66;;;13.77;39.09
40838;BME280;29632;49.168;9.848;2023-02-17T04:24:37;97448.50;;;13.77;39.43
40838;BME280;29632;49.168;9.848;2023-02-17T04:27:03;97454.53;;;13.77;38.84
40838;BME280;29632;49.168;9.848;2023-02-17T04:29:30;97457.16;;;13.77;38.91
40838;BME280;29632;49.168;9.848;2023-02-17T04:31:55;97455.50;;;13.76;39.14
40838;BME280;29632;49.168;9.848;2023-02-17T04:34:21;97458.97;;;13.77;39.33
40838;BME280;29632;49.168;9.848;2023-02-17T04:36:47;97452.75;;;13.78;39.30
40838;BME280;29632;49.168;9.848;2023-02-17T04:39:12;97453.13;;;13.83;39.20
40838;BME280;29632;49.168;9.848;2023-02-17T04:41:38;97442.50;;;13.85;39.21
40838;BME280;29632;49.168;9.848;2023-02-17T04:44:03;97452.97;;;13.85;38.96
40838;BME280;29632;49.168;9.848;2023-02-17T04:46:29;97444.47;;;13.83;39.17
40838;BME280;29632;49.168;9.848;2023-02-17T04:48:55;97456.16;;;13.78;39.12
40838;BME280;29632;49.168;9.848;2023-02-17T04:51:20;97449.44;;;13.76;38.85
40838;BME280;29632;49.168;9.848;2023-02-17T04:53:46;97436.66;;;13.73;39.15
40838;BME280;29632;49.168;9.848;2023-02-17T04:56:11;97446.31;;;13.72;39.05
40838;BME280;29632;49.168;9.848;2023-02-17T04:58:37;97447.25;;;13.71;39.37
40838;BME280;29632;49.168;9.848;2023-02-17T05:01:03;97452.50;;;13.71;39.33
40838;BME280;29632;49.168;9.848;2023-02-17T05:03:28;97444.78;;;13.70;38.99
40838;BME280;29632;49.168;9.848;2023-02-17T05:05:54;97442.19;;;13.70;39.10
40838;BME280;29632;49.168;9.848;2023-02-17T05:08:20;97447.41;;;13.70;39.18
40838;BME280;29632;49.168;9.848;2023-02-17T05:10:45;97458.72;;;13.70;39.05
40838;BME280;29632;49.168;9.848;2023-02-17T05:13:11;97450.88;;;13.70;39.42
40838;BME280;29632;49.168;9.848;2023-02-17T05:15:36;97448.13;;;13.72;39.29
40838;BME280;29632;49.168;9.848;2023-02-17T05:18:02;97444.78;;;13.70;39.50
40838;BME280;29632;49.168;9.848;2023-02-17T05:20:28;97450.88;;;13.70;39.20
40838;BME280;29632;49.168;9.848;2023-02-17T05:22:54;97449.06;;;13.71;39.21
40838;BME280;29632;49.168;9.848;2023-02-17T05:25:19;97459.81;;;13.68;39.53
40838;BME280;29632;49.168;9.848;2023-02-17T05:27:45;97461.25;;;13.62;39.17
40838;BME280;29632;49.168;9.848;2023-02-17T05:30:11;97467.75;;;13.58;39.73
40838;BME280;29632;49.168;9.848;2023-02-17T05:32:37;97465.41;;;13.55;39.58
40838;BME280;29632;49.168;9.848;2023-02-17T05:35:02;97468.84;;;13.55;39.46
40838;BME280;29632;49.168;9.848;2023-02-17T05:37:28;97466.38;;;13.54;39.73
40838;BME280;29632;49.168;9.848;2023-02-17T05:39:54;97474.94;;;13.56;39.55
40838;BME280;29632;49.168;9.848;2023-02-17T05:42:19;97473.28;;;13.55;39.31
40838;BME280;29632;49.168;9.848;2023-02-17T05:44:45;97468.19;;;13.53;39.20
40838;BME280;29632;49.168;9.848;2023-02-17T05:47:11;97474.94;;;13.56;39.52
40838;BME280;29632;49.168;9.848;2023-02-17T05:49:36;97473.13;;;13.56;39.70
40838;BME280;29632;49.168;9.848;2023-02-17T05:52:02;97478.22;;;13.58;39.30
40838;BME280;29632;49.168;9.848;2023-02-17T05:54:27;97483.13;;;13.61;39.58
40838;BME280;29632;49.168;9.848;2023-02-17T05:56:53;97484.50;;;13.65;39.47
40838;BME280;29632;49.168;9.848;2023-02-17T05:59:19;97483.38;;;13.68;39.57
40838;BME280;29632;49.168;9.848;2023-02-17T06:01:44;97486.53;;;13.71;39.73
40838;BME280;29632;49.168;9.848;2023-02-17T06:04:10;97486.91;;;13.76;39.19
40838;BME280;29632;49.168;9.848;2023-02-17T06:06:35;97490.38;;;13.77;39.22
40838;BME280;29632;49.168;9.848;2023-02-17T06:09:01;97494.78;;;13.76;39.42
40838;BME280;29632;49.168;9.848;2023-02-17T06:11:27;97494.84;;;13.67;39.90
40838;BME280;29632;49.168;9.848;2023-02-17T06:13:52;97483.75;;;13.55;39.56
40838;BME280;29632;49.168;9.848;2023-02-17T06:16:18;97485.44;;;13.46;39.96
40838;BME280;29632;49.168;9.848;2023-02-17T06:18:44;97475.13;;;13.35;39.94
40838;BME280;29632;49.168;9.848;2023-02-17T06:21:09;97481.22;;;13.26;40.11
40838;BME280;29632;49.168;9.848;2023-02-17T06:23:35;97486.88;;;13.21;40.11
40838;BME280;29632;49.168;9.848;2023-02-17T06:26:01;97487.84;;;13.20;40.20
40838;BME280;29632;49.168;9.848;2023-02-17T06:28:26;97490.19;;;13.23;40.17
40838;BME280;29632;49.168;9.848;2023-02-17T06:30:52;97494.16;;;13.27;40.61
40838;BME280;29632;49.168;9.848;2023-02-17T06:33:18;97486.44;;;13.26;40.14
40838;BME280;29632;49.168;9.848;2023-02-17T06:35:47;97491.94;;;13.22;40.26
40838;BME280;29632;49.168;9.848;2023-02-17T06:38:13;97488.41;;;13.14;40.52
40838;BME280;29632;49.168;9.848;2023-02-17T06:40:39;97484.56;;;13.08;40.67
40838;BME280;29632;49.168;9.848;2023-02-17T06:43:05;97489.13;;;13.06;40.56
40838;BME280;29632;49.168;9.848;2023-02-17T06:45:31;97485.03;;;13.03;40.59
40838;BME280;29632;49.168;9.848;2023-02-17T06:47:56;97479.53;;;12.97;40.80
40838;BME280;29632;49.168;9.848;2023-02-17T06:50:22;97489.13;;;12.96;40.69
40838;BME280;29632;49.168;9.848;2023-02-17T06:52:47;97480.22;;;12.89;40.73
40838;BME280;29632;49.168;9.848;2023-02-17T06:55:13;97497.28;;;12.83;40.92
40838;BME280;29632;49.168;9.848;2023-02-17T06:57:39;97501.03;;;12.81;41.23
40838;BME280;29632;49.168;9.848;2023-02-17T07:00:05;97492.47;;;12.79;40.85
40838;BME280;29632;49.168;9.848;2023-02-17T07:02:30;97497.88;;;12.77;41.07
40838;BME280;29632;49.168;9.848;2023-02-17T07:04:56;97495.94;;;12.79;40.81
40838;BME280;29632;49.168;9.848;2023-02-17T07:07:22;97501.16;;;12.79;41.31
40838;BME280;29632;49.168;9.848;2023-02-17T07:09:48;97503.47;;;12.82;41.29
40838;BME280;29632;49.168;9.848;2023-02-17T07:12:13;97492.47;;;12.79;41.32
40838;BME280;29632;49.168;9.848;2023-02-17T07:14:39;97494.41;;;12.77;41.20
40838;BME280;29632;49.168;9.848;2023-02-17T07:17:05;97500.22;;;12.71;41.35
40838;BME280;29632;49.168;9.848;2023-02-17T07:19:31;97500.34;;;12.59;41.63
40838;BME280;29632;49.168;9.848;2023-02-17T07:21:56;97495.97;;;12.50;41.73
40838;BME280;29632;49.168;9.848;2023-02-17T07:24:22;97499.81;;;12.46;41.52
40838;BME280;29632;49.168;9.848;2023-02-17T07:26:48;97506.81;;;12.45;41.76
40838;BME280;29632;49.168;9.848;2023-02-17T07:29:13;97498.16;;;12.45;42.01
40838;BME280;29632;49.168;9.848;2023-02-17T07:31:39;97497.34;;;12.44;41.65
40838;BME280;29632;49.168;9.848;2023-02-17T07:34:05;97498.84;;;12.47;41.84
40838;BME280;29632;49.168;9.848;2023-02-17T07:36:30;97503.66;;;12.52;41.59
40838;BME280;29632;49.168;9.848;2023-02-17T07:38:56;97503.53;;;12.53;41.64
40838;BME280;29632;49.168;9.848;2023-02-17T07:41:23;97505.28;;;12.53;41.88
40838;BME280;29632;49.168;9.848;2023-02-17T07:43:53;97496.38;;;12.55;41.91
40838;BME280;29632;49.168;9.848;2023-02-17T07:46:19;97494.44;;;12.57;41.51
40838;BME280;29632;49.168;9.848;2023-02-17T07:48:45;97500.22;;;12.61;41.69
40838;BME280;29632;49.168;9.848;2023-02-17T07:51:14;97499.13;;;12.63;41.53
40838;BME280;29632;49.168;9.848;2023-02-17T07:53:40;97495.25;;;12.68;41.84
40838;BME280;29632;49.168;9.848;2023-02-17T07:56:10;97491.41;;;12.72;41.59
40838;BME280;29632;49.168;9.848;2023-02-17T07:58:38;97494.69;;;12.74;41.69
40838;BME280;29632;49.168;9.848;2023-02-17T08:01:08;97490.56;;;12.71;41.57
40838;BME280;29632;49.168;9.848;2023-02-17T08:03:34;97514.22;;;12.70;41.65
40838;BME280;29632;49.168;9.848;2023-02-17T08:06:00;97502.97;;;12.69;41.71
40838;BME280;29632;49.168;9.848;2023-02-17T08:08:26;97502.97;;;12.69;41.89
40838;BME280;29632;49.168;9.848;2023-02-17T08:11:11;97506.66;;;12.66;41.66
40838;BME280;29632;49.168;9.848;2023-02-17T08:13:56;97495.53;;;12.64;41.86
40838;BME280;29632;49.168;9.848;2023-02-17T08:16:22;97500.63;;;12.66;42.21
40838;BME280;29632;49.168;9.848;2023-02-17T08:18:47;97501.16;;;12.70;41.91
40838;BME280;29632;49.168;9.848;2023-02-17T08:21:13;97516.44;;;12.74;41.88
40838;BME280;29632;49.168;9.848;2023-02-17T08:23:38;97506.00;;;12.74;41.83
40838;BME280;29632;49.168;9.848;2023-02-17T08:26:05;97506.81;;;12.75;42.36
40838;BME280;29632;49.168;9.848;2023-02-17T08:28:31;97515.31;;;12.77;42.01
40838;BME280;29632;49.168;9.848;2023-02-17T08:30:57;97504.88;;;12.77;42.42
40838;BME280;29632;49.168;9.848;2023-02-17T08:33:23;97511.75;;;12.78;42.59
40838;BME280;29632;49.168;9.848;2023-02-17T08:35:49;97516.16;;;12.77;42.17
40838;BME280;29632;49.168;9.848;2023-02-17T08:38:14;97519.47;;;12.79;42.47
40838;BME280;29632;49.168;9.848;2023-02-17T08:40:40;97517.41;;;12.83;42.18
40838;BME280;29632;49.168;9.848;2023-02-17T08:43:07;97524.97;;;12.86;42.63
40838;BME280;29632;49.168;9.848;2023-02-17T08:45:33;97514.34;;;12.88;42.67
40838;BME280;29632;49.168;9.848;2023-02-17T08:48:04;97522.59;;;12.93;42.16
40838;BME280;29632;49.168;9.848;2023-02-17T08:50:31;97531.69;;;12.98;42.22
40838;BME280;29632;49.168;9.848;2023-02-17T08:52:56;97523.94;;;13.07;42.43
40838;BME280;29632;49.168;9.848;2023-02-17T08:55:22;97520.78;;;13.13;42.45
40838;BME280;29632;49.168;9.848;2023-02-17T08:57:49;97525.41;;;13.19;42.30
40838;BME280;29632;49.168;9.848;2023-02-17T09:00:15;97519.22;;;13.20;42.36
40838;BME280;29632;49.168;9.848;2023-02-17T09:02:41;97522.94;;;13.17;42.54
40838;BME280;29632;49.168;9.848;2023-02-17T09:05:13;97530.78;;;13.17;42.41
40838;BME280;29632;49.168;9.848;2023-02-17T09:07:39;97530.50;;;13.20;42.82
40838;BME280;29632;49.168;9.848;2023-02-17T09:10:06;97537.25;;;13.23;42.67
40838;BME280;29632;49.168;9.848;2023-02-17T09:12:32;97532.03;;;13.23;42.36
40838;BME280;29632;49.168;9.848;2023-02-17T09:14:58;97527.75;;;13.22;42.52
40838;BME280;29632;49.168;9.848;2023-02-17T09:17:24;97537.13;;;13.25;42.45
40838;BME280;29632;49.168;9.848;2023-02-17T09:19:50;97543.72;;;13.29;42.45
40838;BME280;29632;49.168;9.848;2023-02-17T09:22:15;97547.00;;;13.31;42.46
40838;BME280;29632;49.168;9.848;2023-02-17T09:24:42;97543.88;;;13.37;42.95
40838;BME280;29632;49.168;9.848;2023-02-17T09:27:09;97555.69;;;13.41;42.65
40838;BME280;29632;49.168;9.848;2023-02-17T09:29:37;97552.94;;;13.43;42.53
40838;BME280;29632;49.168;9.848;2023-02-17T09:32:07;97560.63;;;13.44;42.83
40838;BME280;29632;49.168;9.848;2023-02-17T09:34:36;97546.72;;;13.44;42.67
40838;BME280;29632;49.168;9.848;2023-02-17T09:37:04;97556.50;;;13.41;42.69
40838;BME280;29632;49.168;9.848;2023-02-17T09:39:34;97549.63;;;13.40;42.95
40838;BME280;29632;49.168;9.848;2023-02-17T09:42:00;97552.94;;;13.43;42.53
40838;BME280;29632;49.168;9.848;2023-02-17T09:44:31;97547.69;;;13.43;42.87
40838;BME280;29632;49.168;9.848;2023-02-17T09:47:06;97533.63;;;13.44;43.26
40838;BME280;29632;49.168;9.848;2023-02-17T09:49:49;97535.00;;;13.48;42.88
40838;BME280;29632;49.168;9.848;2023-02-17T09:52:26;97541.72;;;13.50;42.84
40838;BME280;29632;49.168;9.848;2023-02-17T09:55:05;97552.06;;;13.52;43.19
40838;BME280;29632;49.168;9.848;2023-02-17T09:57:56;97554.53;;;13.53;43.09
40838;BME280;29632;49.168;9.848;2023-02-17T10:00:28;97549.03;;;13.56;43.14
40838;BME280;29632;49.168;9.848;2023-02-17T10:03:18;97552.84;;;13.62;43.16
40838;BME280;29632;49.168;9.848;2023-02-17T10:05:53;97549.13;;;13.65;43.18
40838;BME280;29632;49.168;9.848;2023-02-17T10:08:26;97554.19;;;13.66;43.04
40838;BME280;29632;49.168;9.848;2023-02-17T10:10:56;97552.97;;;13.70;43.08
40838;BME280;29632;49.168;9.848;2023-02-17T10:13:24;97551.69;;;13.74;42.97
40838;BME280;29632;49.168;9.848;2023-02-17T10:15:52;97548.50;;;13.81;42.89
40838;BME280;29632;49.168;9.848;2023-02-17T10:21:00;97539.78;;;13.90;43.23
40838;BME280;29632;49.168;9.848;2023-02-17T10:23:29;97544.19;;;13.89;43.23
40838;BME280;29632;49.168;9.848;2023-02-17T10:31:53;97545.28;;;13.87;43.05
40838;BME280;29632;49.168;9.848;2023-02-17T10:34:35;97549.13;;;13.92;43.21
40838;BME280;29632;49.168;9.848;2023-02-17T10:39:50;97549.63;;;13.96;43.31
40838;BME280;29632;49.168;9.848;2023-02-17T10:44:51;97540.69;;;13.98;43.24
40838;BME280;29632;49.168;9.848;2023-02-17T10:47:18;97542.88;;;14.03;43.44
40838;BME280;29632;49.168;9.848;2023-02-17T10:49:48;97544.06;;;14.09;43.15
40838;BME280;29632;49.168;9.848;2023-02-17T10:52:43;97538.69;;;14.10;43.40
40838;BME280;29632;49.168;9.848;2023-02-17T10:55:32;97530.38;;;14.15;43.31
40838;BME280;29632;49.168;9.848;2023-02-17T11:00:36;97524.69;;;14.20;43.38
40838;BME280;29632;49.168;9.848;2023-02-17T11:03:02;97517.50;;;14.22;43.30
40838;BME280;29632;49.168;9.848;2023-02-17T11:05:30;97522.59;;;14.23;43.27
40838;BME280;29632;49.168;9.848;2023-02-17T11:08:02;97515.41;;;14.25;42.98
40838;BME280;29632;49.168;9.848;2023-02-17T11:10:35;97514.44;;;14.26;43.52
40838;BME280;29632;49.168;9.848;2023-02-17T11:13:02;97524.94;;;14.26;43.70
40838;BME280;29632;49.168;9.848;2023-02-17T11:15:32;97507.25;;;14.28;43.44
40838;BME280;29632;49.168;9.848;2023-02-17T11:18:00;97522.69;;;14.31;43.70
40838;BME280;29632;49.168;9.848;2023-02-17T11:20:29;97519.75;;;14.34;43.48
40838;BME280;29632;49.168;9.848;2023-02-17T11:25:35;97520.75;;;14.33;43.75
40838;BME280;29632;49.168;9.848;2023-02-17T11:28:12;97521.69;;;14.32;43.45
40838;BME280;29632;49.168;9.848;2023-02-17T11:30:39;97516.31;;;14.34;43.71
40838;BME280;29632;49.168;9.848;2023-02-17T11:33:19;97513.84;;;14.32;44.06
40838;BME280;29632;49.168;9.848;2023-02-17T11:35:52;97518.69;;;14.27;43.84
40838;BME280;29632;49.168;9.848;2023-02-17T11:38:20;97526.03;;;14.24;43.93
40838;BME280;29632;49.168;9.848;2023-02-17T11:43:21;97517.38;;;14.23;44.25
40838;BME280;29632;49.168;9.848;2023-02-17T11:46:09;97516.09;;;14.27;44.24
40838;BME280;29632;49.168;9.848;2023-02-17T11:51:54;97522.84;;;14.30;43.95
40838;BME280;29632;49.168;9.848;2023-02-17T11:54:35;97507.25;;;14.28;44.30
40838;BME280;29632;49.168;9.848;2023-02-17T12:00:14;97520.66;;;14.25;44.54
40838;BME280;29632;49.168;9.848;2023-02-17T12:05:36;97523.78;;;14.29;44.33
40838;BME280;29632;49.168;9.848;2023-02-17T12:08:14;97522.69;;;14.31;44.73
40838;BME280;29632;49.168;9.848;2023-02-17T12:10:50;97526.50;;;14.37;44.36
40838;BME280;29632;49.168;9.848;2023-02-17T12:19:18;97523.13;;;14.45;44.29
40838;BME280;29632;49.168;9.848;2023-02-17T12:27:32;97503.91;;;14.54;44.53
40838;BME280;29632;49.168;9.848;2023-02-17T12:38:34;97512.06;;;14.51;44.41
40838;BME280;29632;49.168;9.848;2023-02-17T12:41:47;97507.47;;;14.53;44.78
40838;BME280;29632;49.168;9.848;2023-02-17T12:44:30;97503.91;;;14.54;44.74
40838;BME280;29632;49.168;9.848;2023-02-17T12:46:59;97510.75;;;14.55;44.91
40838;BME280;29632;49.168;9.848;2023-02-17T12:49:39;97508.00;;;14.57;44.72
40838;BME280;29632;49.168;9.848;2023-02-17T12:52:12;97509.53;;;14.59;44.76
40838;BME280;29632;49.168;9.848;2023-02-17T13:00:16;97497.75;;;14.63;44.68
40838;BME280;29632;49.168;9.848;2023-02-17T13:02:45;97492.38;;;14.65;44.89
40838;BME280;29632;49.168;9.848;2023-02-17T13:05:21;97485.69;;;14.70;44.68
40838;BME280;29632;49.168;9.848;2023-02-17T13:07:58;97493.25;;;14.73;44.89
40838;BME280;29632;49.168;9.848;2023-02-17T13:15:36;97485.75;;;14.79;44.40
40838;BME280;29632;49.168;9.848;2023-02-17T13:18:11;97476.22;;;14.78;45.07
40838;BME280;29632;49.168;9.848;2023-02-17T13:20:39;97470.19;;;14.77;45.07
40838;BME280;29632;49.168;9.848;2023-02-17T13:23:10;97467.41;;;14.79;45.16
40838;BME280;29632;49.168;9.848;2023-02-17T13:25:36;97468.88;;;14.81;44.90
40838;BME280;29632;49.168;9.848;2023-02-17T13:28:15;97468.59;;;14.84;45.16
40838;BME280;29632;49.168;9.848;2023-02-17T13:30:42;97472.00;;;14.85;44.89
40838;BME280;29632;49.168;9.848;2023-02-17T13:35:47;97464.38;;;14.91;45.20
40838;BME280;29632;49.168;9.848;2023-02-17T13:38:23;97467.97;;;14.90;45.06
40838;BME280;29632;49.168;9.848;2023-02-17T13:40:50;97467.97;;;14.90;45.23
40838;BME280;29632;49.168;9.848;2023-02-17T13:43:17;97461.06;;;14.89;45.01
40838;BME280;29632;49.168;9.848;2023-02-17T13:48:22;97454.53;;;14.94;45.17
40838;BME280;29632;49.168;9.848;2023-02-17T13:50:51;97440.97;;;14.98;45.05
40838;BME280;29632;49.168;9.848;2023-02-17T13:55:47;97444.47;;;15.07;45.11
40838;BME280;29632;49.168;9.848;2023-02-17T13:58:13;97433.00;;;15.08;45.10
40838;BME280;29632;49.168;9.848;2023-02-17T14:00:41;97437.09;;;15.10;44.79
40838;BME280;29632;49.168;9.848;2023-02-17T14:03:21;97440.06;;;15.16;45.12
40838;BME280;29632;49.168;9.848;2023-02-17T14:05:48;97439.78;;;15.19;44.91
40838;BME280;29632;49.168;9.848;2023-02-17T14:10:54;97442.25;;;15.28;44.82
40838;BME280;29632;49.168;9.848;2023-02-17T14:13:20;97443.44;;;15.34;44.73
40838;BME280;29632;49.168;9.848;2023-02-17T14:15:55;97440.47;;;15.37;45.08
40838;BME280;29632;49.168;9.848;2023-02-17T14:18:40;97442.28;;;15.37;44.86
40838;BME280;29632;49.168;9.848;2023-02-17T14:21:11;97443.94;;;15.38;45.12
40838;BME280;29632;49.168;9.848;2023-02-17T14:23:45;97447.09;;;15.41;45.06
40838;BME280;29632;49.168;9.848;2023-02-17T14:26:13;97442.34;;;15.45;44.87
40838;BME280;29632;49.168;9.848;2023-02-17T14:28:39;97445.31;;;15.50;45.03
40838;BME280;29632;49.168;9.848;2023-02-17T14:31:17;97443.34;;;15.52;44.86
40838;BME280;29632;49.168;9.848;2023-02-17T14:33:51;97443.03;;;15.55;44.72
40838;BME280;29632;49.168;9.848;2023-02-17T14:36:28;97444.34;;;15.59;44.84
40838;BME280;29632;49.168;9.848;2023-02-17T14:38:55;97438.44;;;15.65;44.80
40838;BME280;29632;49.168;9.848;2023-02-17T14:41:21;97438.28;;;15.67;44.90
40838;BME280;29632;49.168;9.848;2023-02-17T14:43:46;97430.56;;;15.65;44.98
40838;BME280;29632;49.168;9.848;2023-02-17T14:46:12;97428.13;;;15.64;44.94